sensor_id;sensor_type;location;lat;lon;timestamp;pressure;altitude;pressure_sealevel;temperature;humidity
23229;BME280;11783;50.350;6.576;2024-01-25T00:01:11;97364.78;;;5.66;nan
23229;BME280;11783;50.350;6.576;2024-01-25T00:03:37;97365.13;;;5.77;nan
23229;BME280;11783;50.350;6.576;2024-01-25T00:06:03;97356.56;;;5.75;nan
23229;BME280;11783;50.350;6.576;2024-01-25T00:08:28;97349.31;;;5.77;nan
23229;BME280;11783;50.350;6.576;2024-01-25T00:10:54;97360.03;;;5.76;nan
23229;BME280;11783;50.350;6.576;2024-01-25T00:13:19;97358.75;;;5.72;nan
23229;BME280;11783;50.350;6.576;2024-01-25T00:15:45;97354.59;;;5.77;nan
23229;BME280;11783;50.350;6.576;2024-01-25T00:18:10;97349.81;;;5.88;nan
23229;BME280;11783;50.350;6.576;2024-01-25T00:20:35;97347.31;;;5.80;nan
23229;BME280;11783;50.350;6.576;2024-01-25T00:23:01;97347.50;;;5.78;nan
23229;BME280;11783;50.350;6.576;2024-01-25T00:25:26;97348.84;;;5.74;nan
23229;BME280;11783;50.350;6.576;2024-01-25T00:27:52;97342.31;;;5.70;nan
23229;BME280;11783;50.350;6.576;2024-01-25T00:30:17;97339.09;;;5.74;nan
23229;BME280;11783;50.350;6.576;2024-01-25T00:32:43;97330.56;;;5.72;nan
23229;BME280;11783;50.350;6.576;2024-01-25T00:35:09;97343.88;;;5.64;nan
23229;BME280;11783;50.350;6.576;2024-01-25T00:37:36;97342.31;;;5.55;nan
23229;BME280;11783;50.350;6.576;2024-01-25T00:40:02;97343.44;;;5.61;nan
23229;BME280;11783;50.350;6.576;2024-01-25T00:42:28;97336.16;;;5.63;nan
23229;BME280;11783;50.350;6.576;2024-01-25T00:44:55;97342.13;;;5.57;nan
23229;BME280;11783;50.350;6.576;2024-01-25T00:47:21;97333.69;;;5.61;nan
23229;BME280;11783;50.350;6.576;2024-01-25T00:49:46;97349.97;;;5.65;nan
23229;BME280;11783;50.350;6.576;2024-01-25T00:52:12;97354.41;;;5.64;nan
23229;BME280;11783;50.350;6.576;2024-01-25T00:54:38;97353.59;;;5.64;nan
23229;BME280;11783;50.350;6.576;2024-01-25T00:57:04;97343.50;;;5.67;nan
23229;BME280;11783;50.350;6.576;2024-01-25T00:59:29;97349.31;;;5.63;nan
23229;BME280;11783;50.350;6.576;2024-01-25T01:01:55;97344.69;;;5.65;nan
23229;BME280;11783;50.350;6.576;2024-01-25T01:04:21;97348.97;;;5.66;nan
23229;BME280;11783;50.350;6.576;2024-01-25T01:06:47;97344.06;;;5.63;nan
23229;BME280;11783;50.350;6.576;2024-01-25T01:09:13;97344.31;;;5.68;nan
23229;BME280;11783;50.350;6.576;2024-01-25T01:11:38;97346.31;;;5.66;nan
23229;BME280;11783;50.350;6.576;2024-01-25T01:14:04;97353.97;;;5.61;nan
23229;BME280;11783;50.350;6.576;2024-01-25T01:16:29;97358.63;;;5.59;nan
23229;BME280;11783;50.350;6.576;2024-01-25T01:18:58;97352.88;;;5.55;nan
23229;BME280;11783;50.350;6.576;2024-01-25T01:21:30;97355.50;;;5.55;nan
23229;BME280;11783;50.350;6.576;2024-01-25T01:23:55;97367.78;;;5.48;nan
23229;BME280;11783;50.350;6.576;2024-01-25T01:26:21;97355.06;;;5.52;nan
23229;BME280;11783;50.350;6.576;2024-01-25T01:28:46;97365.59;;;5.52;nan
23229;BME280;11783;50.350;6.576;2024-01-25T01:31:11;97360.06;;;5.46;nan
23229;BME280;11783;50.350;6.576;2024-01-25T01:33:37;97353.41;;;5.51;nan
23229;BME280;11783;50.350;6.576;2024-01-25T01:36:02;97348.91;;;5.44;nan
23229;BME280;11783;50.350;6.576;2024-01-25T01:38:28;97355.34;;;5.42;nan
23229;BME280;11783;50.350;6.576;2024-01-25T01:40:53;97364.41;;;5.54;nan
23229;BME280;11783;50.350;6.576;2024-01-25T01:43:19;97354.63;;;5.48;nan
23229;BME280;11783;50.350;6.576;2024-01-25T01:45:45;97354.53;;;5.41;nan
23229;BME280;11783;50.350;6.576;2024-01-25T01:48:10;97355.34;;;5.42;nan
23229;BME280;11783;50.350;6.576;2024-01-25T01:50:36;97368.72;;;5.40;nan
23229;BME280;11783;50.350;6.576;2024-01-25T01:53:02;97368.72;;;5.40;nan
23229;BME280;11783;50.350;6.576;2024-01-25T01:55:28;97370.44;;;5.48;nan
23229;BME280;11783;50.350;6.576;2024-01-25T01:57:54;97373.25;;;5.46;nan
23229;BME280;11783;50.350;6.576;2024-01-25T02:00:20;97383.44;;;5.50;nan
23229;BME280;11783;50.350;6.576;2024-01-25T02:02:46;97384.97;;;5.44;nan
23229;BME280;11783;50.350;6.576;2024-01-25T02:05:11;97371.63;;;5.45;nan
23229;BME280;11783;50.350;6.576;2024-01-25T02:07:38;97377.25;;;5.42;nan
23229;BME280;11783;50.350;6.576;2024-01-25T02:10:06;97380.78;;;5.50;nan
23229;BME280;11783;50.350;6.576;2024-01-25T02:12:31;97373.69;;;5.50;nan
23229;BME280;11783;50.350;6.576;2024-01-25T02:14:57;97375.06;;;5.46;nan
23229;BME280;11783;50.350;6.576;2024-01-25T02:17:22;97376.34;;;5.50;nan
23229;BME280;11783;50.350;6.576;2024-01-25T02:19:47;97367.34;;;5.44;nan
23229;BME280;11783;50.350;6.576;2024-01-25T02:22:16;97371.50;;;5.39;nan
23229;BME280;11783;50.350;6.576;2024-01-25T02:24:42;97387.31;;;5.39;nan
23229;BME280;11783;50.350;6.576;2024-01-25T02:27:07;97394.09;;;5.41;nan
23229;BME280;11783;50.350;6.576;2024-01-25T02:29:32;97392.72;;;5.45;nan
23229;BME280;11783;50.350;6.576;2024-01-25T02:31:58;97387.81;;;5.42;nan
23229;BME280;11783;50.350;6.576;2024-01-25T02:34:23;97387.06;;;5.34;nan
23229;BME280;11783;50.350;6.576;2024-01-25T02:36:48;97387.88;;;5.34;nan
23229;BME280;11783;50.350;6.576;2024-01-25T02:39:14;97380.91;;;5.41;nan
23229;BME280;11783;50.350;6.576;2024-01-25T02:41:39;97385.69;;;5.38;nan
23229;BME280;11783;50.350;6.576;2024-01-25T02:44:05;97380.16;;;5.33;nan
23229;BME280;11783;50.350;6.576;2024-01-25T02:46:30;97375.81;;;5.25;nan
23229;BME280;11783;50.350;6.576;2024-01-25T02:48:55;97377.81;;;5.23;nan
23229;BME280;11783;50.350;6.576;2024-01-25T02:51:21;97373.16;;;5.25;nan
23229;BME280;11783;50.350;6.576;2024-01-25T02:53:46;97378.06;;;5.13;nan
23229;BME280;11783;50.350;6.576;2024-01-25T02:56:11;97380.88;;;5.12;nan
23229;BME280;11783;50.350;6.576;2024-01-25T02:58:37;97371.16;;;5.12;nan
23229;BME280;11783;50.350;6.576;2024-01-25T03:01:02;97371.50;;;5.09;nan
23229;BME280;11783;50.350;6.576;2024-01-25T03:03:28;97379.06;;;5.12;nan
23229;BME280;11783;50.350;6.576;2024-01-25T03:05:53;97378.69;;;5.15;nan
23229;BME280;11783;50.350;6.576;2024-01-25T03:08:18;97370.91;;;5.22;nan
23229;BME280;11783;50.350;6.576;2024-01-25T03:10:45;97376.88;;;5.16;nan
23229;BME280;11783;50.350;6.576;2024-01-25T03:13:11;97382.97;;;5.16;nan
23229;BME280;11783;50.350;6.576;2024-01-25T03:15:36;97392.22;;;5.12;nan
23229;BME280;11783;50.350;6.576;2024-01-25T03:18:02;97392.13;;;5.06;nan
23229;BME280;11783;50.350;6.576;2024-01-25T03:20:27;97385.47;;;4.95;nan
23229;BME280;11783;50.350;6.576;2024-01-25T03:22:52;97392.19;;;4.98;nan
23229;BME280;11783;50.350;6.576;2024-01-25T03:25:19;97400.66;;;4.93;nan
23229;BME280;11783;50.350;6.576;2024-01-25T03:27:45;97400.75;;;5.00;nan
23229;BME280;11783;50.350;6.576;2024-01-25T03:30:10;97390.38;;;4.98;nan
23229;BME280;11783;50.350;6.576;2024-01-25T03:32:36;97395.19;;;4.95;nan
23229;BME280;11783;50.350;6.576;2024-01-25T03:35:01;97397.19;;;4.93;nan
23229;BME280;11783;50.350;6.576;2024-01-25T03:37:27;97391.19;;;4.84;nan
23229;BME280;11783;50.350;6.576;2024-01-25T03:39:52;97388.63;;;4.76;nan
23229;BME280;11783;50.350;6.576;2024-01-25T03:42:18;97401.44;;;4.79;nan
23229;BME280;11783;50.350;6.576;2024-01-25T03:44:43;97405.81;;;4.86;nan
23229;BME280;11783;50.350;6.576;2024-01-25T03:47:10;97399.56;;;4.88;nan
23229;BME280;11783;50.350;6.576;2024-01-25T03:49:35;97389.06;;;4.79;nan
23229;BME280;11783;50.350;6.576;2024-01-25T03:52:01;97398.97;;;4.77;nan
23229;BME280;11783;50.350;6.576;2024-01-25T03:54:27;97399.59;;;4.79;nan
23229;BME280;11783;50.350;6.576;2024-01-25T03:56:52;97404.97;;;4.71;nan
23229;BME280;11783;50.350;6.576;2024-01-25T03:59:17;97396.00;;;4.57;nan
23229;BME280;11783;50.350;6.576;2024-01-25T04:01:46;97401.91;;;4.60;nan
23229;BME280;11783;50.350;6.576;2024-01-25T04:04:15;97412.03;;;4.71;nan
23229;BME280;11783;50.350;6.576;2024-01-25T04:06:41;97411.75;;;4.66;nan
23229;BME280;11783;50.350;6.576;2024-01-25T04:09:14;97402.00;;;4.51;nan
23229;BME280;11783;50.350;6.576;2024-01-25T04:11:42;97406.91;;;4.54;nan
23229;BME280;11783;50.350;6.576;2024-01-25T04:14:08;97412.25;;;4.61;nan
23229;BME280;11783;50.350;6.576;2024-01-25T04:16:33;97416.06;;;4.59;nan
23229;BME280;11783;50.350;6.576;2024-01-25T04:18:59;97410.69;;;4.52;nan
23229;BME280;11783;50.350;6.576;2024-01-25T04:21:25;97411.16;;;4.55;nan
23229;BME280;11783;50.350;6.576;2024-01-25T04:23:52;97413.88;;;4.47;nan
23229;BME280;11783;50.350;6.576;2024-01-25T04:26:18;97411.00;;;4.34;nan
23229;BME280;11783;50.350;6.576;2024-01-25T04:28:43;97404.94;;;4.25;nan
23229;BME280;11783;50.350;6.576;2024-01-25T04:31:08;97422.03;;;4.30;nan
23229;BME280;11783;50.350;6.576;2024-01-25T04:33:34;97413.97;;;4.31;nan
23229;BME280;11783;50.350;6.576;2024-01-25T04:35:59;97393.78;;;4.23;nan
23229;BME280;11783;50.350;6.576;2024-01-25T04:38:25;97399.69;;;4.25;nan
23229;BME280;11783;50.350;6.576;2024-01-25T04:40:50;97403.81;;;4.28;nan
23229;BME280;11783;50.350;6.576;2024-01-25T04:43:16;97396.13;;;4.18;nan
23229;BME280;11783;50.350;6.576;2024-01-25T04:45:41;97389.69;;;4.21;nan
23229;BME280;11783;50.350;6.576;2024-01-25T04:48:07;97386.75;;;4.16;nan
23229;BME280;11783;50.350;6.576;2024-01-25T04:50:33;97387.22;;;4.19;nan
23229;BME280;11783;50.350;6.576;2024-01-25T04:52:58;97393.03;;;4.15;nan
23229;BME280;11783;50.350;6.576;2024-01-25T04:55:23;97395.84;;;4.13;nan
23229;BME280;11783;50.350;6.576;2024-01-25T04:57:49;97384.03;;;4.09;nan
23229;BME280;11783;50.350;6.576;2024-01-25T05:00:18;97383.88;;;4.03;nan
23229;BME280;11783;50.350;6.576;2024-01-25T05:02:44;97390.91;;;4.10;nan
23229;BME280;11783;50.350;6.576;2024-01-25T05:05:09;97397.50;;;4.06;nan
23229;BME280;11783;50.350;6.576;2024-01-25T05:07:35;97401.94;;;4.06;nan
23229;BME280;11783;50.350;6.576;2024-01-25T05:10:00;97411.69;;;3.97;nan
23229;BME280;11783;50.350;6.576;2024-01-25T05:12:26;97412.88;;;3.94;nan
23229;BME280;11783;50.350;6.576;2024-01-25T05:14:51;97410.44;;;3.85;nan
23229;BME280;11783;50.350;6.576;2024-01-25T05:19:42;97422.28;;;3.81;nan
23229;BME280;11783;50.350;6.576;2024-01-25T05:22:07;97431.34;;;3.78;nan
23229;BME280;11783;50.350;6.576;2024-01-25T05:24:33;97428.88;;;3.77;nan
23229;BME280;11783;50.350;6.576;2024-01-25T05:26:59;97422.00;;;3.68;nan
23229;BME280;11783;50.350;6.576;2024-01-25T05:29:24;97421.81;;;3.77;nan
23229;BME280;11783;50.350;6.576;2024-01-25T05:31:49;97433.97;;;3.78;nan
23229;BME280;11783;50.350;6.576;2024-01-25T05:34:15;97435.97;;;3.68;nan
23229;BME280;11783;50.350;6.576;2024-01-25T05:36:41;97435.13;;;3.76;nan
23229;BME280;11783;50.350;6.576;2024-01-25T05:39:07;97439.84;;;3.88;nan
23229;BME280;11783;50.350;6.576;2024-01-25T05:41:33;97442.63;;;3.87;nan
23229;BME280;11783;50.350;6.576;2024-01-25T05:43:59;97448.41;;;3.82;nan
23229;BME280;11783;50.350;6.576;2024-01-25T05:46:25;97451.03;;;3.82;nan
23229;BME280;11783;50.350;6.576;2024-01-25T05:48:50;97452.16;;;3.88;nan
23229;BME280;11783;50.350;6.576;2024-01-25T05:51:15;97453.84;;;3.81;nan
23229;BME280;11783;50.350;6.576;2024-01-25T05:53:41;97463.31;;;3.90;nan
23229;BME280;11783;50.350;6.576;2024-01-25T05:56:06;97461.88;;;3.87;nan
23229;BME280;11783;50.350;6.576;2024-01-25T05:58:32;97461.38;;;3.84;nan
23229;BME280;11783;50.350;6.576;2024-01-25T06:00:57;97457.81;;;3.69;nan
23229;BME280;11783;50.350;6.576;2024-01-25T06:03:23;97460.63;;;3.75;nan
23229;BME280;11783;50.350;6.576;2024-01-25T06:05:48;97456.66;;;3.79;nan
23229;BME280;11783;50.350;6.576;2024-01-25T06:08:14;97453.91;;;3.64;nan
23229;BME280;11783;50.350;6.576;2024-01-25T06:10:39;97455.09;;;3.54;nan
23229;BME280;11783;50.350;6.576;2024-01-25T06:13:05;97463.13;;;3.60;nan
23229;BME280;11783;50.350;6.576;2024-01-25T06:15:30;97465.88;;;3.67;nan
23229;BME280;11783;50.350;6.576;2024-01-25T06:17:56;97466.75;;;3.59;nan
23229;BME280;11783;50.350;6.576;2024-01-25T06:20:22;97475.31;;;3.53;nan
23229;BME280;11783;50.350;6.576;2024-01-25T06:22:48;97472.00;;;3.51;nan
23229;BME280;11783;50.350;6.576;2024-01-25T06:25:14;97468.41;;;3.44;nan
23229;BME280;11783;50.350;6.576;2024-01-25T06:27:39;97471.88;;;3.45;nan
23229;BME280;11783;50.350;6.576;2024-01-25T06:30:05;97468.06;;;3.55;nan
23229;BME280;11783;50.350;6.576;2024-01-25T06:32:31;97473.53;;;3.38;nan
23229;BME280;11783;50.350;6.576;2024-01-25T06:34:57;97478.78;;;3.29;nan
23229;BME280;11783;50.350;6.576;2024-01-25T06:37:22;97476.28;;;3.44;nan
23229;BME280;11783;50.350;6.576;2024-01-25T06:39:48;97480.56;;;3.45;nan
23229;BME280;11783;50.350;6.576;2024-01-25T06:42:13;97477.97;;;3.37;nan
23229;BME280;11783;50.350;6.576;2024-01-25T06:44:39;97491.94;;;3.38;nan
23229;BME280;11783;50.350;6.576;2024-01-25T06:47:05;97497.38;;;3.20;nan
23229;BME280;11783;50.350;6.576;2024-01-25T06:49:31;97497.50;;;3.26;nan
23229;BME280;11783;50.350;6.576;2024-01-25T06:51:56;97494.88;;;3.10;nan
23229;BME280;11783;50.350;6.576;2024-01-25T06:54:22;97491.13;;;3.04;nan
23229;BME280;11783;50.350;6.576;2024-01-25T06:56:47;97497.38;;;3.03;nan
23229;BME280;11783;50.350;6.576;2024-01-25T06:59:13;97504.94;;;2.98;nan
23229;BME280;11783;50.350;6.576;2024-01-25T07:01:39;97503.28;;;3.06;nan
23229;BME280;11783;50.350;6.576;2024-01-25T07:04:04;97495.38;;;3.06;nan
23229;BME280;11783;50.350;6.576;2024-01-25T07:06:30;97496.22;;;3.06;nan
23229;BME280;11783;50.350;6.576;2024-01-25T07:08:55;97498.66;;;2.91;nan
23229;BME280;11783;50.350;6.576;2024-01-25T07:11:21;97493.25;;;2.93;nan
23229;BME280;11783;50.350;6.576;2024-01-25T07:13:46;97493.25;;;2.93;nan
23229;BME280;11783;50.350;6.576;2024-01-25T07:16:12;97505.25;;;2.87;nan
23229;BME280;11783;50.350;6.576;2024-01-25T07:18:38;97503.44;;;2.88;nan
23229;BME280;11783;50.350;6.576;2024-01-25T07:21:03;97508.81;;;2.78;nan
23229;BME280;11783;50.350;6.576;2024-01-25T07:23:30;97499.63;;;2.66;nan
23229;BME280;11783;50.350;6.576;2024-01-25T07:25:55;97490.44;;;2.62;nan
23229;BME280;11783;50.350;6.576;2024-01-25T07:28:21;97499.31;;;2.69;nan
23229;BME280;11783;50.350;6.576;2024-01-25T07:30:47;97502.75;;;2.78;nan
23229;BME280;11783;50.350;6.576;2024-01-25T07:33:14;97505.25;;;2.79;nan
23229;BME280;11783;50.350;6.576;2024-01-25T07:35:40;97503.75;;;2.68;nan
23229;BME280;11783;50.350;6.576;2024-01-25T07:38:13;97502.91;;;2.68;nan
23229;BME280;11783;50.350;6.576;2024-01-25T07:40:39;97502.25;;;2.66;nan
23229;BME280;11783;50.350;6.576;2024-01-25T07:43:05;97498.94;;;2.56;nan
23229;BME280;11783;50.350;6.576;2024-01-25T07:45:31;97493.72;;;2.64;nan
23229;BME280;11783;50.350;6.576;2024-01-25T07:47:57;97489.31;;;2.64;nan
23229;BME280;11783;50.350;6.576;2024-01-25T07:50:23;97498.97;;;2.64;nan
23229;BME280;11783;50.350;6.576;2024-01-25T07:52:48;97492.41;;;2.52;nan
23229;BME280;11783;50.350;6.576;2024-01-25T07:55:16;97506.50;;;2.51;nan
23229;BME280;11783;50.350;6.576;2024-01-25T07:57:41;97504.69;;;2.43;nan
23229;BME280;11783;50.350;6.576;2024-01-25T08:00:07;97507.13;;;2.36;nan
23229;BME280;11783;50.350;6.576;2024-01-25T08:02:34;97503.66;;;2.28;nan
23229;BME280;11783;50.350;6.576;2024-01-25T08:05:00;97499.88;;;2.30;nan
23229;BME280;11783;50.350;6.576;2024-01-25T08:07:25;97499.72;;;2.32;nan
23229;BME280;11783;50.350;6.576;2024-01-25T08:09:50;97495.81;;;2.36;nan
23229;BME280;11783;50.350;6.576;2024-01-25T08:12:17;97497.94;;;2.32;nan
23229;BME280;11783;50.350;6.576;2024-01-25T08:14:43;97508.75;;;2.29;nan
23229;BME280;11783;50.350;6.576;2024-01-25T08:17:09;97506.94;;;2.38;nan
23229;BME280;11783;50.350;6.576;2024-01-25T08:19:35;97513.69;;;2.40;nan
23229;BME280;11783;50.350;6.576;2024-01-25T08:22:00;97520.28;;;2.45;nan
23229;BME280;11783;50.350;6.576;2024-01-25T08:24:25;97531.41;;;2.47;nan
23229;BME280;11783;50.350;6.576;2024-01-25T08:26:51;97530.75;;;2.45;nan
23229;BME280;11783;50.350;6.576;2024-01-25T08:29:16;97515.69;;;2.47;nan
23229;BME280;11783;50.350;6.576;2024-01-25T08:31:42;97510.75;;;2.43;nan
23229;BME280;11783;50.350;6.576;2024-01-25T08:34:07;97506.50;;;2.42;nan
23229;BME280;11783;50.350;6.576;2024-01-25T08:36:32;97504.56;;;2.61;nan
23229;BME280;11783;50.350;6.576;2024-01-25T08:38:58;97502.22;;;2.58;nan
23229;BME280;11783;50.350;6.576;2024-01-25T08:41:23;97493.88;;;2.54;nan
23229;BME280;11783;50.350;6.576;2024-01-25T08:43:49;97482.88;;;2.59;nan
23229;BME280;11783;50.350;6.576;2024-01-25T08:46:15;97484.19;;;2.55;nan
23229;BME280;11783;50.350;6.576;2024-01-25T08:48:43;97478.28;;;2.53;nan
23229;BME280;11783;50.350;6.576;2024-01-25T08:51:08;97473.84;;;2.53;nan
23229;BME280;11783;50.350;6.576;2024-01-25T08:53:34;97484.22;;;2.71;nan
23229;BME280;11783;50.350;6.576;2024-01-25T08:55:59;97495.50;;;2.55;nan
23229;BME280;11783;50.350;6.576;2024-01-25T08:58:25;97498.81;;;2.73;nan
23229;BME280;11783;50.350;6.576;2024-01-25T09:00:50;97500.00;;;2.79;nan
23229;BME280;11783;50.350;6.576;2024-01-25T09:03:16;97496.03;;;2.75;nan
23229;BME280;11783;50.350;6.576;2024-01-25T09:05:42;97489.78;;;2.76;nan
23229;BME280;11783;50.350;6.576;2024-01-25T09:08:12;97488.81;;;2.85;nan
23229;BME280;11783;50.350;6.576;2024-01-25T09:10:37;97491.63;;;3.00;nan
23229;BME280;11783;50.350;6.576;2024-01-25T09:13:04;97490.13;;;3.06;nan
23229;BME280;11783;50.350;6.576;2024-01-25T09:15:29;97481.59;;;3.12;nan
23229;BME280;11783;50.350;6.576;2024-01-25T09:17:55;97489.97;;;3.23;nan
23229;BME280;11783;50.350;6.576;2024-01-25T09:20:20;97491.75;;;3.31;nan
23229;BME280;11783;50.350;6.576;2024-01-25T09:22:46;97494.34;;;3.47;nan
23229;BME280;11783;50.350;6.576;2024-01-25T09:25:11;97492.34;;;3.65;nan
23229;BME280;11783;50.350;6.576;2024-01-25T09:27:37;97494.63;;;3.69;nan
23229;BME280;11783;50.350;6.576;2024-01-25T09:30:07;97502.69;;;3.75;nan
23229;BME280;11783;50.350;6.576;2024-01-25T09:32:33;97494.88;;;3.90;nan
23229;BME280;11783;50.350;6.576;2024-01-25T09:34:59;97494.88;;;3.90;nan
23229;BME280;11783;50.350;6.576;2024-01-25T09:37:24;97494.63;;;4.16;nan
23229;BME280;11783;50.350;6.576;2024-01-25T09:39:50;97496.75;;;4.20;nan
23229;BME280;11783;50.350;6.576;2024-01-25T09:42:19;97493.66;;;4.17;nan
23229;BME280;11783;50.350;6.576;2024-01-25T09:44:44;97504.81;;;4.19;nan
23229;BME280;11783;50.350;6.576;2024-01-25T09:47:11;97496.41;;;4.23;nan
23229;BME280;11783;50.350;6.576;2024-01-25T09:49:37;97513.09;;;4.47;nan
23229;BME280;11783;50.350;6.576;2024-01-25T09:52:03;97496.66;;;4.68;nan
23229;BME280;11783;50.350;6.576;2024-01-25T09:54:35;97506.03;;;4.70;nan
23229;BME280;11783;50.350;6.576;2024-01-25T09:57:08;97503.16;;;4.80;nan
23229;BME280;11783;50.350;6.576;2024-01-25T09:59:37;97498.13;;;4.93;nan
23229;BME280;11783;50.350;6.576;2024-01-25T10:02:03;97494.31;;;4.96;nan
23229;BME280;11783;50.350;6.576;2024-01-25T10:04:29;97505.09;;;5.09;nan
23229;BME280;11783;50.350;6.576;2024-01-25T10:06:58;97509.53;;;5.08;nan
23229;BME280;11783;50.350;6.576;2024-01-25T10:09:23;97505.38;;;5.14;nan
23229;BME280;11783;50.350;6.576;2024-01-25T10:11:49;97519.81;;;5.18;nan
23229;BME280;11783;50.350;6.576;2024-01-25T10:14:14;97520.94;;;5.24;nan
23229;BME280;11783;50.350;6.576;2024-01-25T10:16:40;97519.41;;;5.29;nan
23229;BME280;11783;50.350;6.576;2024-01-25T10:19:06;97519.41;;;5.29;nan
23229;BME280;11783;50.350;6.576;2024-01-25T10:21:35;97513.44;;;5.50;nan
23229;BME280;11783;50.350;6.576;2024-01-25T10:24:01;97513.38;;;5.58;nan
23229;BME280;11783;50.350;6.576;2024-01-25T10:26:27;97510.91;;;5.57;nan
23229;BME280;11783;50.350;6.576;2024-01-25T10:28:55;97497.72;;;5.71;nan
23229;BME280;11783;50.350;6.576;2024-01-25T10:31:24;97503.03;;;5.86;nan
23229;BME280;11783;50.350;6.576;2024-01-25T10:33:53;97496.84;;;5.94;nan
23229;BME280;11783;50.350;6.576;2024-01-25T10:36:21;97497.34;;;5.97;nan
23229;BME280;11783;50.350;6.576;2024-01-25T10:38:48;97494.28;;;5.86;nan
23229;BME280;11783;50.350;6.576;2024-01-25T10:41:14;97494.22;;;5.94;nan
23229;BME280;11783;50.350;6.576;2024-01-25T10:43:40;97493.59;;;6.06;nan
23229;BME280;11783;50.350;6.576;2024-01-25T10:46:05;97492.22;;;6.11;nan
23229;BME280;11783;50.350;6.576;2024-01-25T10:48:31;97500.41;;;6.16;nan
23229;BME280;11783;50.350;6.576;2024-01-25T10:50:58;97498.22;;;6.19;nan
23229;BME280;11783;50.350;6.576;2024-01-25T10:53:29;97502.00;;;6.31;nan
23229;BME280;11783;50.350;6.576;2024-01-25T10:55:56;97498.66;;;6.37;nan
23229;BME280;11783;50.350;6.576;2024-01-25T10:58:21;97499.91;;;6.42;nan
23229;BME280;11783;50.350;6.576;2024-01-25T11:00:52;97489.72;;;6.38;nan
23229;BME280;11783;50.350;6.576;2024-01-25T11:03:18;97472.13;;;6.46;nan
23229;BME280;11783;50.350;6.576;2024-01-25T11:05:45;97462.28;;;6.54;nan
23229;BME280;11783;50.350;6.576;2024-01-25T11:08:18;97473.34;;;6.64;nan
23229;BME280;11783;50.350;6.576;2024-01-25T11:10:48;97465.56;;;6.78;nan
23229;BME280;11783;50.350;6.576;2024-01-25T11:13:16;97456.84;;;6.84;nan
23229;BME280;11783;50.350;6.576;2024-01-25T11:15:41;97437.44;;;6.91;nan
23229;BME280;11783;50.350;6.576;2024-01-25T11:18:08;97447.44;;;6.96;nan
23229;BME280;11783;50.350;6.576;2024-01-25T11:20:34;97448.06;;;6.98;nan
23229;BME280;11783;50.350;6.576;2024-01-25T11:23:05;97447.97;;;7.13;nan
23229;BME280;11783;50.350;6.576;2024-01-25T11:25:32;97445.19;;;7.21;nan
23229;BME280;11783;50.350;6.576;2024-01-25T11:28:01;97439.19;;;7.34;nan
23229;BME280;11783;50.350;6.576;2024-01-25T11:30:29;97443.06;;;7.38;nan
23229;BME280;11783;50.350;6.576;2024-01-25T11:32:55;97434.81;;;7.47;nan
23229;BME280;11783;50.350;6.576;2024-01-25T11:35:21;97429.38;;;7.62;nan
23229;BME280;11783;50.350;6.576;2024-01-25T11:37:48;97421.75;;;7.80;nan
23229;BME280;11783;50.350;6.576;2024-01-25T11:40:15;97420.16;;;7.86;nan
23229;BME280;11783;50.350;6.576;2024-01-25T11:42:47;97416.13;;;7.97;nan
23229;BME280;11783;50.350;6.576;2024-01-25T11:45:13;97409.47;;;8.07;nan
23229;BME280;11783;50.350;6.576;2024-01-25T11:47:39;97413.94;;;8.07;nan
23229;BME280;11783;50.350;6.576;2024-01-25T11:50:06;97393.00;;;8.18;nan
23229;BME280;11783;50.350;6.576;2024-01-25T11:52:32;97384.47;;;8.23;nan
23229;BME280;11783;50.350;6.576;2024-01-25T11:55:02;97398.72;;;8.22;nan
23229;BME280;11783;50.350;6.576;2024-01-25T11:57:30;97397.91;;;8.28;nan
23229;BME280;11783;50.350;6.576;2024-01-25T11:59:56;97386.50;;;8.21;nan
23229;BME280;11783;50.350;6.576;2024-01-25T12:02:22;97392.63;;;8.28;nan
23229;BME280;11783;50.350;6.576;2024-01-25T12:04:48;97395.47;;;8.27;nan
23229;BME280;11783;50.350;6.576;2024-01-25T12:07:14;97387.72;;;8.25;nan
23229;BME280;11783;50.350;6.576;2024-01-25T12:09:40;97403.16;;;8.08;nan
23229;BME280;11783;50.350;6.576;2024-01-25T12:12:06;97401.50;;;8.01;nan
23229;BME280;11783;50.350;6.576;2024-01-25T12:14:32;97375.66;;;8.03;nan
23229;BME280;11783;50.350;6.576;2024-01-25T12:16:57;97380.31;;;8.01;nan
23229;BME280;11783;50.350;6.576;2024-01-25T12:19:23;97378.44;;;7.95;nan
23229;BME280;11783;50.350;6.576;2024-01-25T12:21:48;97377.84;;;7.93;nan
23229;BME280;11783;50.350;6.576;2024-01-25T12:24:13;97380.06;;;7.96;nan
23229;BME280;11783;50.350;6.576;2024-01-25T12:26:41;97376.66;;;8.08;nan
23229;BME280;11783;50.350;6.576;2024-01-25T12:29:07;97380.53;;;8.12;nan
23229;BME280;11783;50.350;6.576;2024-01-25T12:31:33;97379.13;;;8.10;nan
23229;BME280;11783;50.350;6.576;2024-01-25T12:34:00;97385.63;;;8.01;nan
23229;BME280;11783;50.350;6.576;2024-01-25T12:36:26;97391.28;;;7.98;nan
23229;BME280;11783;50.350;6.576;2024-01-25T12:38:51;97384.97;;;7.92;nan
23229;BME280;11783;50.350;6.576;2024-01-25T12:41:16;97388.81;;;7.89;nan
23229;BME280;11783;50.350;6.576;2024-01-25T12:43:42;97370.91;;;7.98;nan
23229;BME280;11783;50.350;6.576;2024-01-25T12:46:08;97354.88;;;8.00;nan
23229;BME280;11783;50.350;6.576;2024-01-25T12:48:33;97357.13;;;8.09;nan
23229;BME280;11783;50.350;6.576;2024-01-25T12:50:59;97362.41;;;8.09;nan
23229;BME280;11783;50.350;6.576;2024-01-25T12:53:24;97353.25;;;8.05;nan
23229;BME280;11783;50.350;6.576;2024-01-25T12:55:50;97343.88;;;8.09;nan
23229;BME280;11783;50.350;6.576;2024-01-25T12:58:15;97343.06;;;8.09;nan
23229;BME280;11783;50.350;6.576;2024-01-25T13:00:41;97343.06;;;8.02;nan
23229;BME280;11783;50.350;6.576;2024-01-25T13:03:06;97340.63;;;8.07;nan
23229;BME280;11783;50.350;6.576;2024-01-25T13:05:33;97344.50;;;8.18;nan
23229;BME280;11783;50.350;6.576;2024-01-25T13:08:02;97349.84;;;8.25;nan
23229;BME280;11783;50.350;6.576;2024-01-25T13:10:28;97335.56;;;8.26;nan
23229;BME280;11783;50.350;6.576;2024-01-25T13:12:53;97341.50;;;8.34;nan
23229;BME280;11783;50.350;6.576;2024-01-25T13:15:19;97339.03;;;8.33;nan
23229;BME280;11783;50.350;6.576;2024-01-25T13:17:45;97330.06;;;8.27;nan
23229;BME280;11783;50.350;6.576;2024-01-25T13:20:11;97341.28;;;8.29;nan
23229;BME280;11783;50.350;6.576;2024-01-25T13:22:36;97325.38;;;8.23;nan
23229;BME280;11783;50.350;6.576;2024-01-25T13:25:02;97323.97;;;8.33;nan
23229;BME280;11783;50.350;6.576;2024-01-25T13:27:28;97324.78;;;8.27;nan